Station: Lajamanu  

  Atmospheric Gas Attenuation - ITU Rec 676-11   ----------------- dB/100km -----------------
Date Time Temp RH % AH g/m3 Dew Point Wind Direction Speed kph Gust kph Barometer mB Rainfall Since 9am 24GHz 47GHz 76GHz 122GHz 134GHz 241GHz
01/09 11:00 28.6 27 7.59 7.8 20 32 1020.8 0 16.8 20.9 30.2 78.9 71.4 245.6
01/09 10:50 28.5 28 7.83 8.2 17 30 1021 0 17.3 21.3 31.0 81.1 74.1 254.8
01/09 10:40 28 29 7.89 8.3 20 30 1021.1 0 17.5 21.5 31.4 82.1 75.2 258.6
01/09 10:30 27.2 30 7.81 8.1 20 28 1021 0 17.3 21.5 31.4 82.2 75.0 258.1
01/09 10:20 26.9 30 7.68 7.9 19 24 1021.3 0 17.1 21.4 31.1 81.3 73.9 254.1
01/09 10:10 26.6 30 7.55 7.6 17 28 1021.3 0 16.8 21.3 30.8 80.5 72.8 250.1
01/09 10:00 26.1 31 7.59 7.7 17 24 1021.1 0 16.9 21.5 31.1 81.3 73.6 253.1
01/09 09:50 25.5 32 7.58 7.6 19 26 1021.3 0 16.9 21.6 31.3 81.8 74.1 254.6
01/09 09:40 25.1 32 7.41 7.3 20 28 1021.4 0 16.6 21.5 30.9 80.7 72.6 249.3
01/09 09:30 24.8 33 7.51 7.4 17 26 1021.1 0 16.8 21.7 31.3 81.9 74.0 254.0
01/09 09:20 24.5 34 7.61 7.6 19 24 1021.1 0 17.0 21.9 31.8 83.1 75.3 258.9
01/09 09:10 23.8 34 7.31 7 17 22 1021 0 16.4 21.7 31.0 81.1 72.6 249.3
01/09 09:00 23 36 7.4 7.1 13 22 1021.6 0 16.6 22.0 31.7 82.7 74.4 255.4
01/09 08:50 22 38 7.37 7 9 15 1020.9 0 16.6 22.2 31.9 83.4 74.9 257.2
01/09 08:40 21.4 40 7.5 7.3 7 11 1020.8 0 16.9 22.5 32.6 85.2 77.0 264.3
01/09 08:30 20.1 44 7.65 7.5 0 7 1021.3 0 17.3 23.0 33.7 88.1 80.0 274.9
01/09 08:20 18.6 46 7.32 6.8 0 0 1020.6 0 16.7 22.9 33.1 86.4 77.6 266.0
01/09 08:10 17.9 48 7.33 6.7 0 0 1020.7 0 16.7 23.1 33.4 87.3 78.4 268.8
01/09 08:00 17.4 51 7.56 7.2 0 0 1021 0 17.2 23.6 34.5 90.1 81.7 280.3
01/09 07:50 16.4 54 7.54 7.1 0 0 1020.4 0 17.2 23.8 34.8 91.0 82.4 282.8
01/09 07:40 15.1 60 7.74 7.4 0 0 1020.2 0 17.7 24.4 36.1 94.5 86.3 296.2
01/09 07:30 14.4 62 7.66 7.2 0 0 1020.6 0 17.6 24.5 36.1 94.6 86.1 295.3
01/09 07:20 13.5 64 7.49 6.8 0 0 1020 0 17.2 24.5 35.9 93.8 84.8 290.9
01/09 07:10 12.9 64 7.21 6.3 0 0 1019.9 0 16.7 24.2 35.0 91.6 81.9 280.5
01/09 07:00 12.9 65 7.33 6.5 0 0 1020.2 0 16.9 24.4 35.5 92.9 83.5 286.0
01/09 06:50 12.6 66 7.3 6.4 0 0 1019.6 0 16.9 24.4 35.5 92.9 83.3 285.5
01/09 06:40 12.7 65 7.24 6.3 0 0 1019.5 0 16.7 24.3 35.2 92.1 82.5 282.5
01/09 06:30 12.9 64 7.21 6.3 0 0 1019.9 0 16.7 24.2 35.0 91.6 81.9 280.5
01/09 06:20 12.8 66 7.39 6.6 0 6 1019.3 0 17.0 24.5 35.7 93.5 84.3 288.8
01/09 06:10 13 65 7.37 6.6 0 4 1019.2 0 17.0 24.4 35.6 93.1 83.8 287.2
01/09 06:00 12.8 65 7.28 6.4 0 0 1019.6 0 16.8 24.3 35.3 92.4 82.9 283.9
01/09 05:50 13 64 7.26 6.4 0 0 1018.9 0 16.8 24.2 35.1 91.9 82.4 282.2
01/09 05:40 13.2 63 7.23 6.3 0 6 1018.9 0 16.7 24.1 34.9 91.4 81.8 280.1
01/09 05:30 13.3 64 7.39 6.6 2 6 1019.3 0 17.0 24.3 35.5 92.9 83.7 287.0
01/09 05:20 13.6 65 7.65 7.2 0 0 1018.7 0 17.6 24.6 36.4 95.2 86.7 297.4
01/09 05:10 13.9 63 7.55 7 0 0 1018.6 0 17.3 24.4 35.8 93.8 85.1 291.8
01/09 05:00 14.4 62 7.66 7.2 4 13 1019 0 17.6 24.4 36.1 94.4 86.0 294.9
01/09 04:50 14 63 7.6 7.1 0 0 1018.4 0 17.4 24.4 36.0 94.2 85.6 293.6
01/09 04:40 14.4 62 7.66 7.2 0 0 1018.1 0 17.6 24.4 36.0 94.3 85.9 294.7
01/09 04:30 14.2 62 7.57 7 0 0 1018.7 0 17.4 24.3 35.8 93.7 85.0 291.6
01/09 04:20 14.5 59 7.34 6.6 0 0 1018 0 16.9 23.9 34.8 90.9 81.7 280.2
01/09 04:10 14.3 59 7.25 6.4 0 0 1018.1 0 16.7 23.8 34.5 90.2 80.8 277.0
01/09 04:00 14.8 57 7.22 6.4 0 0 1018.7 0 16.6 23.7 34.2 89.4 80.0 274.1
01/09 03:50 14.8 59 7.47 6.9 0 0 1018.1 0 17.1 24.0 35.1 91.9 83.1 284.9
01/09 03:40 15 59 7.57 7.1 0 0 1018.1 0 17.3 24.1 35.4 92.7 84.1 288.5
01/09 03:30 15 59 7.57 7.1 6 6 1018.7 0 17.3 24.1 35.4 92.7 84.2 288.7
01/09 03:20 15 60 7.69 7.3 6 6 1018.2 0 17.6 24.3 35.9 93.9 85.6 293.9
01/09 03:10 14.9 60 7.65 7.2 7 9 1018.2 0 17.5 24.3 35.8 93.6 85.2 292.5
01/09 03:00 14.9 59 7.52 7 6 7 1018.8 0 17.2 24.1 35.3 92.4 83.6 286.9
01/09 02:50 15.2 56 7.27 6.5 0 0 1018.4 0 16.7 23.6 34.2 89.5 80.2 274.8
01/09 02:40 15.7 54 7.22 6.4 0 0 1018.5 0 16.6 23.4 33.8 88.4 79.1 271.0
01/09 02:30 16.1 53 7.26 6.5 6 7 1019.1 0 16.6 23.4 33.8 88.4 79.2 271.5
01/09 02:20 16.5 52 7.3 6.6 4 6 1018.7 0 16.7 23.3 33.8 88.3 79.3 271.7
01/09 02:10 16.7 52 7.39 6.8 6 7 1018.8 0 16.9 23.4 34.0 89.0 80.2 274.9
01/09 02:00 16.6 51 7.2 6.4 4 6 1019.3 0 16.5 23.2 33.4 87.3 78.0 267.3
01/09 01:50 17 50 7.23 6.5 4 6 1019 0 16.5 23.1 33.3 87.1 77.9 267.2
01/09 01:40 17.8 49 7.44 7 6 6 1019 0 16.9 23.2 33.8 88.3 79.7 273.4
01/09 01:30 17.9 49 7.48 7 6 7 1019.5 0 17.0 23.3 33.9 88.7 80.1 274.8
01/09 01:20 18.3 48 7.5 7.1 7 7 1019.1 0 17.0 23.2 33.8 88.4 79.9 274.2
01/09 01:10 18.3 48 7.5 7.1 7 7 1019.1 0 17.0 23.2 33.8 88.4 79.9 274.2
01/09 01:00 18.4 48 7.55 7.2 7 9 1019.7 0 17.1 23.3 34.0 88.8 80.4 276.1
01/09 00:50 18.5 48 7.59 7.3 7 9 1019.2 0 17.2 23.3 34.0 89.0 80.8 277.3
01/09 00:40 18.5 48 7.59 7.3 7 11 1019.2 0 17.2 23.3 34.0 89.0 80.8 277.3
01/09 00:30 18.8 47 7.57 7.3 9 11 1019.7 0 17.2 23.2 33.9 88.6 80.3 275.6
01/09 00:20 18.9 47 7.61 7.4 7 9 1019.2 0 17.3 23.2 33.9 88.8 80.6 276.8
01/09 00:10 19 47 7.66 7.4 7 9 1019.3 0 17.4 23.3 34.1 89.2 81.1 278.6
01/09 00:00 19.1 47 7.7 7.5 7 7 1019.8 0 17.4 23.3 34.2 89.5 81.5 280.0
31/08 23:50 19.2 47 7.75 7.6 7 9 1019.8 0 17.5 23.3 34.3 89.9 82.0 281.8
31/08 23:40 19.4 46 7.67 7.5 7 9 1019.7 0 17.4 23.2 34.0 88.9 80.9 277.7
31/08 23:30 19.5 46 7.72 7.6 7 9 1019.7 0 17.5 23.2 34.1 89.2 81.4 279.4
31/08 23:20 19.6 46 7.76 7.7 7 9 1019.6 0 17.5 23.3 34.2 89.5 81.7 280.7
31/08 23:10 19.9 45 7.73 7.6 9 9 1019.6 0 17.5 23.1 34.0 88.9 81.1 278.5
31/08 23:00 20.1 45 7.82 7.8 9 11 1019.6 0 17.6 23.2 34.2 89.5 81.9 281.5
31/08 22:50 20.2 45 7.87 7.9 9 13 1019.6 0 17.7 23.3 34.4 89.9 82.4 283.2
31/08 22:40 20.5 44 7.83 7.8 9 11 1019.6 0 17.6 23.1 34.1 89.2 81.6 280.5
31/08 22:30 20.7 44 7.92 8 9 13 1019.6 0 17.8 23.2 34.3 89.8 82.5 283.6
31/08 22:20 20.7 44 7.92 8 11 13 1019.6 0 17.8 23.2 34.3 89.8 82.5 283.6
31/08 22:10 20.8 44 7.97 8.1 9 11 1019.5 0 17.9 23.3 34.5 90.2 83.0 285.2
31/08 22:00 21 44 8.06 8.3 9 11 1019.5 0 18.1 23.3 34.7 90.8 83.8 288.3
31/08 21:50 21.4 43 8.06 8.3 9 11 1019.5 0 18.1 23.2 34.5 90.4 83.4 286.8
31/08 21:40 21.3 44 8.2 8.6 7 9 1019.5 0 18.4 23.5 35.1 91.8 85.2 293.0
31/08 21:30 21.3 43 8.01 8.2 9 9 1019.5 0 18.0 23.2 34.4 90.0 82.9 285.1
31/08 21:20 21.5 43 8.11 8.4 9 9 1019.4 0 18.2 23.3 34.7 90.7 83.9 288.5
31/08 21:10 21.7 42 8.01 8.2 9 11 1019.3 0 18.0 23.1 34.2 89.6 82.5 283.7
31/08 21:00 22 42 8.15 8.5 7 7 1019.2 0 18.3 23.2 34.6 90.5 83.8 288.3
31/08 20:50 22.1 41 8 8.2 7 9 1019 0 17.9 23.0 34.0 89.0 81.9 281.8
31/08 20:40 22.3 41 8.1 8.4 9 9 1018.9 0 18.1 23.0 34.3 89.7 82.9 285.2
31/08 20:30 22.5 40 7.99 8.2 9 11 1018.8 0 17.9 22.8 33.8 88.4 81.4 280.0
31/08 20:20 22.8 39 7.92 8.1 7 9 1018.6 0 17.7 22.7 33.4 87.5 80.3 276.1
31/08 20:10 23.1 39 8.06 8.4 7 7 1018.4 0 18.0 22.8 33.8 88.4 81.6 280.7
31/08 20:00 23.4 38 7.99 8.3 9 11 1018.4 0 17.9 22.6 33.4 87.4 80.5 276.8
31/08 19:50 23.7 37 7.91 8.2 7 9 1018.2 0 17.7 22.4 33.0 86.4 79.3 272.6
31/08 19:40 23.9 36 7.79 7.9 7 9 1018 0 17.4 22.2 32.5 85.0 77.7 267.1
31/08 19:30 24.2 35 7.7 7.8 9 9 1017.9 0 17.2 22.0 32.1 83.9 76.4 262.6
31/08 19:20 24.7 34 7.7 7.8 7 9 1017.8 0 17.2 21.9 31.9 83.4 75.9 261.0
31/08 19:10 25.4 33 7.77 8 7 9 1017.7 0 17.3 21.8 31.8 83.3 76.0 261.5
31/08 19:00 25.9 31 7.51 7.5 7 9 1017.6 0 16.8 21.3 30.8 80.5 72.7 249.9
31/08 18:50 26.7 30 7.59 7.7 9 11 1017.5 0 16.9 21.2 30.8 80.4 72.9 250.5
31/08 18:40 27.3 29 7.59 7.7 9 13 1017.4 0 16.9 21.1 30.5 79.8 72.3 248.7
31/08 18:30 28.1 28 7.66 7.9 11 15 1017.3 0 17.0 21.0 30.5 79.7 72.4 248.9

Last Refresh: 01-Sep-2026 11:11:11

Bureau of Meteorology